Time,TemperatureF,DewpointF,PressureIn,WindDirection,WindDirectionDegrees,WindSpeedMPH,WindSpeedGustMPH,Humidity,HourlyPrecipIn,Conditions,Clouds,dailyrainin,SoftwareType,DateUTC
2013-11-06 00:01:00,29.7,26.3,30.46,SW,232,0.0,0.0,87,0.00,,FEW120,0.00,VWS V12.08,2013-11-06 05:01:00,
2013-11-06 00:02:00,29.7,26.3,30.46,SW,232,0.0,0.0,87,0.00,,FEW120,0.00,VWS V12.08,2013-11-06 05:02:00,
2013-11-06 00:07:00,29.7,26.0,30.46,SW,232,0.0,0.0,86,0.00,,FEW120,0.00,VWS V12.08,2013-11-06 05:07:00,
2013-11-06 00:12:00,29.7,26.0,30.46,SW,232,0.0,0.0,86,0.00,,FEW120,0.00,VWS V12.08,2013-11-06 05:12:00,
2013-11-06 00:17:00,29.7,26.0,30.46,SW,232,0.0,0.0,86,0.00,,FEW120,0.00,VWS V12.08,2013-11-06 05:17:00,
2013-11-06 00:22:00,29.7,26.0,30.46,SW,232,0.0,0.0,86,0.00,,FEW120,0.00,VWS V12.08,2013-11-06 05:22:00,
2013-11-06 00:27:00,29.9,26.2,30.46,SW,232,0.0,0.0,86,0.00,,FEW120,0.00,VWS V12.08,2013-11-06 05:27:00,
2013-11-06 00:32:00,29.9,26.2,30.45,SW,232,0.0,0.0,86,0.00,,FEW120,0.00,VWS V12.08,2013-11-06 05:32:00,
2013-11-06 00:37:00,29.9,26.2,30.45,SW,232,0.0,0.0,86,0.00,,FEW120,0.00,VWS V12.08,2013-11-06 05:37:00,
2013-11-06 00:42:00,30.0,26.3,30.45,SW,232,0.0,0.0,86,0.00,,CLR,0.00,VWS V12.08,2013-11-06 05:42:00,
2013-11-06 00:47:00,30.0,26.3,30.45,SW,230,0.0,0.0,86,0.00,,CLR,0.00,VWS V12.08,2013-11-06 05:47:00,
2013-11-06 00:52:00,30.0,26.3,30.45,SW,232,0.0,0.0,86,0.00,,CLR,0.00,VWS V12.08,2013-11-06 05:52:00,
2013-11-06 00:57:00,30.0,26.3,30.45,SW,232,0.0,0.0,86,0.00,,CLR,0.00,VWS V12.08,2013-11-06 05:57:00,
2013-11-06 01:02:00,30.0,26.3,30.44,SW,232,0.0,0.0,86,0.00,,CLR,0.00,VWS V12.08,2013-11-06 06:02:00,
2013-11-06 01:07:00,30.0,26.3,30.44,SW,232,0.0,0.0,86,0.00,,CLR,0.00,VWS V12.08,2013-11-06 06:07:00,
2013-11-06 01:12:00,30.0,26.3,30.44,SW,232,0.0,0.0,86,0.00,,CLR,0.00,VWS V12.08,2013-11-06 06:12:00,
2013-11-06 01:17:00,30.0,26.3,30.44,SW,232,0.0,0.0,86,0.00,,CLR,0.00,VWS V12.08,2013-11-06 06:17:00,
2013-11-06 01:22:00,30.0,26.3,30.44,SW,232,0.0,0.0,86,0.00,,CLR,0.00,VWS V12.08,2013-11-06 06:22:00,
2013-11-06 01:27:00,30.0,26.3,30.44,SW,232,0.0,0.0,86,0.00,,CLR,0.00,VWS V12.08,2013-11-06 06:27:00,
2013-11-06 01:32:00,30.0,26.3,30.44,SW,232,0.0,0.0,86,0.00,,CLR,0.00,VWS V12.08,2013-11-06 06:32:00,
2013-11-06 01:37:00,30.0,26.3,30.44,SW,232,0.0,0.0,86,0.00,,CLR,0.00,VWS V12.08,2013-11-06 06:37:00,
2013-11-06 01:42:00,30.0,26.3,30.44,SW,232,0.0,0.0,86,0.00,,BKN120,0.00,VWS V12.08,2013-11-06 06:42:00,
2013-11-06 01:47:00,29.9,26.2,30.43,SW,232,0.0,0.0,86,0.00,,BKN120,0.00,VWS V12.08,2013-11-06 06:47:00,
2013-11-06 01:52:00,29.6,26.2,30.43,SW,232,0.0,0.0,87,0.00,,BKN120,0.00,VWS V12.08,2013-11-06 06:52:00,
2013-11-06 01:57:00,29.3,25.9,30.43,SW,232,0.0,0.0,87,0.00,,BKN120,0.00,VWS V12.08,2013-11-06 06:57:00,
2013-11-06 02:02:00,29.1,26.0,30.43,SW,232,0.0,0.0,88,0.00,,BKN120,0.00,VWS V12.08,2013-11-06 07:02:00,
2013-11-06 02:07:00,29.0,25.9,30.43,SW,232,0.0,0.0,88,0.00,,BKN120,0.00,VWS V12.08,2013-11-06 07:07:00,
2013-11-06 02:12:00,28.7,25.9,30.43,SW,232,0.0,0.0,89,0.00,,BKN120,0.00,VWS V12.08,2013-11-06 07:12:00,
2013-11-06 02:17:00,28.7,25.9,30.43,SW,232,0.0,0.0,89,0.00,,BKN120,0.00,VWS V12.08,2013-11-06 07:17:00,
2013-11-06 02:22:00,28.5,25.7,30.43,SW,232,0.0,0.0,89,0.00,,BKN120,0.00,VWS V12.08,2013-11-06 07:22:00,
2013-11-06 02:27:00,28.5,26.0,30.43,SW,232,0.0,0.0,90,0.00,,BKN120,0.00,VWS V12.08,2013-11-06 07:27:00,
2013-11-06 02:32:00,28.4,25.9,30.43,SW,232,0.0,0.0,90,0.00,,BKN120,0.00,VWS V12.08,2013-11-06 07:32:00,
2013-11-06 02:37:00,28.2,25.6,30.43,SW,232,0.0,0.0,90,0.00,,BKN120,0.00,VWS V12.08,2013-11-06 07:37:00,
2013-11-06 02:42:00,28.2,25.6,30.43,SW,232,0.0,0.0,90,0.00,,OVC110,0.00,VWS V12.08,2013-11-06 07:42:00,
2013-11-06 02:47:00,27.9,25.4,30.43,SW,232,0.0,0.0,90,0.00,,OVC110,0.00,VWS V12.08,2013-11-06 07:47:00,
2013-11-06 02:52:00,27.8,25.2,30.43,SW,232,0.0,0.0,90,0.00,,OVC110,0.00,VWS V12.08,2013-11-06 07:52:00,
2013-11-06 02:57:00,27.6,25.3,30.43,SW,232,0.0,0.0,91,0.00,,OVC110,0.00,VWS V12.08,2013-11-06 07:57:00,
2013-11-06 03:02:00,27.5,25.2,30.42,SW,232,0.0,0.0,91,0.00,,OVC110,0.00,VWS V12.08,2013-11-06 08:02:00,
2013-11-06 03:07:00,27.3,25.0,30.42,SW,232,0.0,0.0,91,0.00,,OVC110,0.00,VWS V12.08,2013-11-06 08:07:00,
2013-11-06 03:12:00,27.3,25.0,30.42,SW,232,0.0,0.0,91,0.00,,OVC110,0.00,VWS V12.08,2013-11-06 08:12:00,
2013-11-06 03:17:00,27.3,25.3,30.42,SW,232,0.0,0.0,92,0.00,,OVC110,0.00,VWS V12.08,2013-11-06 08:17:00,
2013-11-06 03:22:00,27.3,25.0,30.42,SW,232,0.0,0.0,91,0.00,,OVC110,0.00,VWS V12.08,2013-11-06 08:22:00,
2013-11-06 03:27:00,27.2,24.9,30.42,SW,232,0.0,0.0,91,0.00,,OVC110,0.00,VWS V12.08,2013-11-06 08:27:00,
2013-11-06 03:32:00,27.0,25.0,30.42,SW,232,0.0,0.0,92,0.00,,OVC110,0.00,VWS V12.08,2013-11-06 08:32:00,
2013-11-06 03:37:00,26.9,24.9,30.42,SW,232,0.0,0.0,92,0.00,,OVC110,0.00,VWS V12.08,2013-11-06 08:37:00,
2013-11-06 03:42:00,26.9,24.9,30.42,SW,232,0.0,0.0,92,0.00,,CLR,0.00,VWS V12.08,2013-11-06 08:42:00,
2013-11-06 03:47:00,26.9,25.1,30.42,SW,232,0.0,0.0,93,0.00,,CLR,0.00,VWS V12.08,2013-11-06 08:47:00,
2013-11-06 03:52:00,26.9,25.1,30.42,SW,232,0.0,0.0,93,0.00,,CLR,0.00,VWS V12.08,2013-11-06 08:52:00,
2013-11-06 03:57:00,26.9,25.1,30.42,SW,232,0.0,0.0,93,0.00,,CLR,0.00,VWS V12.08,2013-11-06 08:57:00,
2013-11-06 04:02:00,26.8,25.0,30.42,SW,232,0.0,0.0,93,0.00,,CLR,0.00,VWS V12.08,2013-11-06 09:02:00,
2013-11-06 04:07:00,26.9,25.1,30.42,SW,232,0.0,0.0,93,0.00,,CLR,0.00,VWS V12.08,2013-11-06 09:07:00,
2013-11-06 04:12:00,26.8,25.0,30.42,SW,232,0.0,0.0,93,0.00,,CLR,0.00,VWS V12.08,2013-11-06 09:12:00,
2013-11-06 04:17:00,26.8,25.0,30.42,SW,232,0.0,0.0,93,0.00,,CLR,0.00,VWS V12.08,2013-11-06 09:17:00,
2013-11-06 04:22:00,26.8,25.0,30.42,SW,232,0.0,0.0,93,0.00,,CLR,0.00,VWS V12.08,2013-11-06 09:22:00,
2013-11-06 04:27:00,26.6,24.9,30.42,SW,232,0.0,0.0,93,0.00,,CLR,0.00,VWS V12.08,2013-11-06 09:27:00,
2013-11-06 04:32:00,26.5,24.8,30.41,SW,232,0.0,0.0,93,0.00,,CLR,0.00,VWS V12.08,2013-11-06 09:32:00,
2013-11-06 04:37:00,26.5,24.8,30.41,SW,232,0.0,0.0,93,0.00,,CLR,0.00,VWS V12.08,2013-11-06 09:37:00,
2013-11-06 04:42:00,26.5,25.0,30.41,SW,232,0.0,0.0,94,0.00,,CLR,0.00,VWS V12.08,2013-11-06 09:42:00,
2013-11-06 04:47:00,26.5,25.0,30.41,SW,232,0.0,0.0,94,0.00,,CLR,0.00,VWS V12.08,2013-11-06 09:47:00,
2013-11-06 04:52:00,26.3,24.8,30.41,SW,232,0.0,0.0,94,0.00,,CLR,0.00,VWS V12.08,2013-11-06 09:52:00,
2013-11-06 04:58:00,26.3,24.8,30.41,SW,232,0.0,0.0,94,0.00,,CLR,0.00,VWS V12.08,2013-11-06 09:58:00,
2013-11-06 05:03:00,26.2,24.7,30.41,SW,232,0.0,0.0,94,0.00,,CLR,0.00,VWS V12.08,2013-11-06 10:03:00,
2013-11-06 05:08:00,26.0,24.5,30.41,SW,232,0.0,0.0,94,0.00,,CLR,0.00,VWS V12.08,2013-11-06 10:08:00,
2013-11-06 05:13:00,26.0,24.8,30.41,SW,232,0.0,0.0,95,0.00,,CLR,0.00,VWS V12.08,2013-11-06 10:13:00,
2013-11-06 05:18:00,26.0,24.8,30.41,SW,232,0.0,0.0,95,0.00,,CLR,0.00,VWS V12.08,2013-11-06 10:18:00,
2013-11-06 05:23:00,25.9,24.7,30.41,SW,232,0.0,0.0,95,0.00,,CLR,0.00,VWS V12.08,2013-11-06 10:23:00,
2013-11-06 05:28:00,25.9,24.7,30.41,SW,232,0.0,0.0,95,0.00,,CLR,0.00,VWS V12.08,2013-11-06 10:28:00,
2013-11-06 05:33:00,25.9,24.7,30.41,SW,232,0.0,0.0,95,0.00,,CLR,0.00,VWS V12.08,2013-11-06 10:33:00,
2013-11-06 05:38:00,25.9,24.7,30.41,SW,232,0.0,0.0,95,0.00,,CLR,0.00,VWS V12.08,2013-11-06 10:38:00,
2013-11-06 05:43:00,26.0,25.0,30.41,SW,232,0.0,0.0,96,0.00,,CLR,0.00,VWS V12.08,2013-11-06 10:43:00,
2013-11-06 05:48:00,26.0,25.0,30.41,SW,232,0.0,0.0,96,0.00,,CLR,0.00,VWS V12.08,2013-11-06 10:48:00,
2013-11-06 05:53:00,26.2,25.2,30.41,SW,232,0.0,0.0,96,0.00,,CLR,0.00,VWS V12.08,2013-11-06 10:53:00,
2013-11-06 05:58:00,26.3,25.3,30.41,SW,232,0.0,2.0,96,0.00,,CLR,0.00,VWS V12.08,2013-11-06 10:58:00,
2013-11-06 06:03:00,26.3,25.3,30.39,SW,232,0.0,0.0,96,0.00,,CLR,0.00,VWS V12.08,2013-11-06 11:03:00,
2013-11-06 06:08:00,26.3,25.3,30.39,SW,232,0.0,0.0,96,0.00,,CLR,0.00,VWS V12.08,2013-11-06 11:08:00,
2013-11-06 06:13:00,26.5,25.5,30.39,SW,232,0.0,0.0,96,0.00,,CLR,0.00,VWS V12.08,2013-11-06 11:13:00,
2013-11-06 06:18:00,26.3,25.3,30.39,SW,232,0.0,0.0,96,0.00,,CLR,0.00,VWS V12.08,2013-11-06 11:18:00,
2013-11-06 06:23:00,26.3,25.3,30.39,SW,232,0.0,0.0,96,0.00,,CLR,0.00,VWS V12.08,2013-11-06 11:23:00,
2013-11-06 06:28:00,26.5,25.5,30.39,SW,232,0.0,0.0,96,0.00,,CLR,0.00,VWS V12.08,2013-11-06 11:28:00,
2013-11-06 06:33:00,26.6,25.6,30.39,SW,232,0.0,0.0,96,0.00,,CLR,0.00,VWS V12.08,2013-11-06 11:33:00,
2013-11-06 06:38:00,26.8,26.1,30.39,SW,232,0.0,0.0,97,0.00,,CLR,0.00,VWS V12.08,2013-11-06 11:38:00,
2013-11-06 06:43:00,26.9,26.2,30.39,SW,232,0.0,0.0,97,0.00,,CLR,0.00,VWS V12.08,2013-11-06 11:43:00,
2013-11-06 06:48:00,26.9,25.9,30.38,SW,232,0.0,0.0,96,0.00,,CLR,0.00,VWS V12.08,2013-11-06 11:48:00,
2013-11-06 06:53:00,27.0,26.0,30.38,SW,232,0.0,0.0,96,0.00,,CLR,0.00,VWS V12.08,2013-11-06 11:53:00,
2013-11-06 06:58:00,27.2,26.2,30.38,SW,232,0.0,0.0,96,0.00,,CLR,0.00,VWS V12.08,2013-11-06 11:58:00,
2013-11-06 07:03:00,27.2,26.2,30.39,SW,232,0.0,0.0,96,0.00,,CLR,0.00,VWS V12.08,2013-11-06 12:03:00,
2013-11-06 07:08:00,27.3,26.3,30.39,SW,232,0.0,0.0,96,0.00,,CLR,0.00,VWS V12.08,2013-11-06 12:08:00,
2013-11-06 07:13:00,27.5,26.5,30.39,SW,232,0.0,0.0,96,0.00,,CLR,0.00,VWS V12.08,2013-11-06 12:13:00,
2013-11-06 07:18:00,27.6,26.6,30.38,SW,232,0.0,0.0,96,0.00,,CLR,0.00,VWS V12.08,2013-11-06 12:18:00,
2013-11-06 07:23:00,27.8,26.6,30.38,SW,232,0.0,0.0,95,0.00,,CLR,0.00,VWS V12.08,2013-11-06 12:23:00,
2013-11-06 07:28:00,28.1,26.9,30.38,SW,232,0.0,0.0,95,0.00,,CLR,0.00,VWS V12.08,2013-11-06 12:28:00,
2013-11-06 07:33:00,28.2,27.0,30.38,SW,232,0.0,0.0,95,0.00,,CLR,0.00,VWS V12.08,2013-11-06 12:33:00,
2013-11-06 07:38:00,28.4,26.9,30.38,SW,232,0.0,0.0,94,0.00,,CLR,0.00,VWS V12.08,2013-11-06 12:38:00,
2013-11-06 07:43:00,28.5,27.0,30.38,SW,232,0.0,0.0,94,0.00,,CLR,0.00,VWS V12.08,2013-11-06 12:43:00,
2013-11-06 07:48:00,28.7,27.2,30.38,SW,232,0.0,0.0,94,0.00,,CLR,0.00,VWS V12.08,2013-11-06 12:48:00,
2013-11-06 07:53:00,29.0,27.5,30.38,SW,232,0.0,0.0,94,0.00,,CLR,0.00,VWS V12.08,2013-11-06 12:53:00,
2013-11-06 07:58:00,29.3,27.5,30.38,SW,232,1.0,1.0,93,0.00,,CLR,0.00,VWS V12.08,2013-11-06 12:58:00,
2013-11-06 08:03:00,29.4,27.6,30.38,SW,232,0.0,0.0,93,0.00,,CLR,0.00,VWS V12.08,2013-11-06 13:03:00,
2013-11-06 08:08:00,29.7,27.9,30.38,SW,232,0.0,0.0,93,0.00,,CLR,0.00,VWS V12.08,2013-11-06 13:08:00,
2013-11-06 08:13:00,29.9,27.9,30.38,SW,232,0.0,2.0,92,0.00,,CLR,0.00,VWS V12.08,2013-11-06 13:13:00,
2013-11-06 08:18:00,29.9,27.9,30.37,SW,232,0.0,0.0,92,0.00,,CLR,0.00,VWS V12.08,2013-11-06 13:18:00,
2013-11-06 08:23:00,30.0,27.7,30.37,SW,232,0.0,0.0,91,0.00,,CLR,0.00,VWS V12.08,2013-11-06 13:23:00,
2013-11-06 08:28:00,30.3,28.0,30.37,SW,232,0.0,0.0,91,0.00,,CLR,0.00,VWS V12.08,2013-11-06 13:28:00,
2013-11-06 08:33:00,30.6,28.3,30.36,SW,232,0.0,0.0,91,0.00,,CLR,0.00,VWS V12.08,2013-11-06 13:33:00,
2013-11-06 08:38:00,30.9,28.3,30.36,SW,232,0.0,0.0,90,0.00,,CLR,0.00,VWS V12.08,2013-11-06 13:38:00,
2013-11-06 08:43:00,31.2,28.6,30.36,SW,232,1.0,2.0,90,0.00,,CLR,0.00,VWS V12.08,2013-11-06 13:43:00,
2013-11-06 08:48:00,31.5,28.6,30.35,SW,232,0.0,0.0,89,0.00,,CLR,0.00,VWS V12.08,2013-11-06 13:48:00,
2013-11-06 08:53:00,31.8,28.7,30.35,East,90,1.0,2.0,88,0.00,,CLR,0.00,VWS V12.08,2013-11-06 13:53:00,
2013-11-06 08:58:00,31.9,28.5,30.35,East,90,0.0,0.0,87,0.00,,CLR,0.00,VWS V12.08,2013-11-06 13:58:00,
2013-11-06 09:03:00,31.9,28.5,30.33,East,90,0.0,0.0,87,0.00,,CLR,0.00,VWS V12.08,2013-11-06 14:03:00,
2013-11-06 09:08:00,32.1,28.7,30.33,East,90,0.0,0.0,87,0.00,,CLR,0.00,VWS V12.08,2013-11-06 14:08:00,
2013-11-06 09:13:00,32.1,28.7,30.33,East,90,0.0,0.0,87,0.00,,CLR,0.00,VWS V12.08,2013-11-06 14:13:00,
2013-11-06 09:18:00,32.4,29.0,30.33,East,90,0.0,0.0,87,0.00,,CLR,0.00,VWS V12.08,2013-11-06 14:18:00,
2013-11-06 09:23:00,33.0,29.3,30.33,East,90,0.0,0.0,86,0.00,,CLR,0.00,VWS V12.08,2013-11-06 14:23:00,
2013-11-06 09:29:00,33.4,29.7,30.33,East,90,0.0,0.0,86,0.00,,CLR,0.00,VWS V12.08,2013-11-06 14:29:00,
2013-11-06 09:34:00,33.7,29.7,30.31,East,90,0.0,0.0,85,0.00,,CLR,0.00,VWS V12.08,2013-11-06 14:34:00,
2013-11-06 09:39:00,34.0,30.0,30.31,East,90,0.0,0.0,85,0.00,,CLR,0.00,VWS V12.08,2013-11-06 14:39:00,
2013-11-06 09:44:00,34.3,30.0,30.31,East,90,0.0,0.0,84,0.00,,OVC110,0.00,VWS V12.08,2013-11-06 14:44:00,
2013-11-06 09:49:00,34.7,30.4,30.31,East,90,0.0,0.0,84,0.00,,OVC110,0.00,VWS V12.08,2013-11-06 14:49:00,
2013-11-06 09:54:00,35.7,30.8,30.31,East,90,0.0,0.0,82,0.00,,OVC110,0.00,VWS V12.08,2013-11-06 14:54:00,
2013-11-06 09:59:00,36.6,31.3,30.30,East,93,0.0,0.0,81,0.00,,OVC110,0.00,VWS V12.08,2013-11-06 14:59:00,
2013-11-06 10:04:00,37.3,31.4,30.30,East,93,0.0,0.0,79,0.00,,OVC110,0.00,VWS V12.08,2013-11-06 15:04:00,
2013-11-06 10:09:00,37.6,31.4,30.30,East,93,0.0,0.0,78,0.00,,OVC110,0.00,VWS V12.08,2013-11-06 15:09:00,
2013-11-06 10:14:00,38.3,32.0,30.29,East,93,0.0,0.0,78,0.00,,OVC110,0.00,VWS V12.08,2013-11-06 15:14:00,
2013-11-06 10:19:00,38.7,32.1,30.29,East,93,0.0,0.0,77,0.00,,OVC110,0.00,VWS V12.08,2013-11-06 15:19:00,
2013-11-06 10:24:00,39.1,32.2,30.29,East,93,1.0,2.0,76,0.00,,OVC110,0.00,VWS V12.08,2013-11-06 15:24:00,
2013-11-06 10:29:00,39.7,32.4,30.27,East,83,0.0,0.0,75,0.00,,OVC110,0.00,VWS V12.08,2013-11-06 15:29:00,
2013-11-06 10:34:00,40.4,32.8,30.27,East,85,1.0,1.0,74,0.00,,OVC110,0.00,VWS V12.08,2013-11-06 15:34:00,
2013-11-06 10:39:00,40.3,32.7,30.27,East,83,0.0,0.0,74,0.00,,OVC110,0.00,VWS V12.08,2013-11-06 15:39:00,
2013-11-06 10:44:00,40.8,32.8,30.26,East,85,1.0,1.0,73,0.00,,CLR,0.00,VWS V12.08,2013-11-06 15:44:00,
2013-11-06 10:49:00,41.7,33.7,30.26,East,83,0.0,1.0,73,0.00,,CLR,0.00,VWS V12.08,2013-11-06 15:49:00,
2013-11-06 10:54:00,42.7,34.0,30.26,East,83,0.0,2.0,71,0.00,,CLR,0.00,VWS V12.08,2013-11-06 15:54:00,
2013-11-06 10:59:00,44.2,35.0,30.24,ENE,64,1.0,2.0,70,0.00,,CLR,0.00,VWS V12.08,2013-11-06 15:59:00,
2013-11-06 11:04:00,45.2,35.3,30.24,ENE,64,0.0,0.0,68,0.00,,CLR,0.00,VWS V12.08,2013-11-06 16:04:00,
2013-11-06 11:09:00,46.0,35.7,30.24,South,185,1.0,3.0,67,0.00,,CLR,0.00,VWS V12.08,2013-11-06 16:09:00,
2013-11-06 11:14:00,46.9,35.8,30.23,SSW,209,2.0,4.0,65,0.00,,CLR,0.00,VWS V12.08,2013-11-06 16:14:00,
2013-11-06 11:19:00,47.4,35.8,30.23,SSW,210,0.0,1.0,64,0.00,,CLR,0.00,VWS V12.08,2013-11-06 16:19:00,
2013-11-06 11:24:00,47.4,35.5,30.23,SSW,210,0.0,1.0,63,0.00,,CLR,0.00,VWS V12.08,2013-11-06 16:24:00,
2013-11-06 11:29:00,47.9,36.3,30.21,SE,128,3.0,3.0,64,0.00,,CLR,0.00,VWS V12.08,2013-11-06 16:29:00,
2013-11-06 11:34:00,48.6,36.6,30.21,ESE,107,0.0,2.0,63,0.00,,CLR,0.00,VWS V12.08,2013-11-06 16:34:00,
2013-11-06 11:39:00,49.2,36.8,30.21,ESE,107,2.0,2.0,62,0.00,,CLR,0.00,VWS V12.08,2013-11-06 16:39:00,
2013-11-06 11:44:00,50.0,37.1,30.19,ESE,106,0.0,2.0,61,0.00,,CLR,0.00,VWS V12.08,2013-11-06 16:44:00,
2013-11-06 11:49:00,50.4,37.0,30.19,ESE,106,2.0,2.0,60,0.00,,CLR,0.00,VWS V12.08,2013-11-06 16:49:00,
2013-11-06 11:54:00,50.8,37.8,30.19,SW,219,2.0,6.0,61,0.00,,CLR,0.00,VWS V12.08,2013-11-06 16:54:00,
2013-11-06 11:59:00,51.7,37.8,30.18,WSW,240,3.0,3.0,59,0.00,,CLR,0.00,VWS V12.08,2013-11-06 16:59:00,
2013-11-06 12:04:00,52.6,38.3,30.18,WSW,253,3.0,6.0,58,0.00,,CLR,0.00,VWS V12.08,2013-11-06 17:04:00,
2013-11-06 12:09:00,53.1,38.3,30.18,WSW,237,2.0,7.0,57,0.00,,CLR,0.00,VWS V12.08,2013-11-06 17:09:00,
2013-11-06 12:14:00,53.4,38.6,30.17,WNW,295,5.0,6.0,57,0.00,,CLR,0.00,VWS V12.08,2013-11-06 17:14:00,
2013-11-06 12:19:00,53.8,38.5,30.17,SW,224,5.0,7.0,56,0.00,,CLR,0.00,VWS V12.08,2013-11-06 17:19:00,
2013-11-06 12:24:00,54.5,38.2,30.17,NW,318,3.0,8.0,54,0.00,,CLR,0.00,VWS V12.08,2013-11-06 17:24:00,
2013-11-06 12:29:00,55.1,38.3,30.16,WSW,251,3.0,7.0,53,0.00,,CLR,0.00,VWS V12.08,2013-11-06 17:29:00,
2013-11-06 12:34:00,55.3,38.5,30.16,West,265,2.0,3.0,53,0.00,,CLR,0.00,VWS V12.08,2013-11-06 17:34:00,
2013-11-06 12:39:00,55.5,37.7,30.16,WSW,254,5.0,8.0,51,0.00,,CLR,0.00,VWS V12.08,2013-11-06 17:39:00,
2013-11-06 12:44:00,55.8,38.5,30.15,WSW,257,4.0,5.0,52,0.00,,CLR,0.00,VWS V12.08,2013-11-06 17:44:00,
2013-11-06 12:49:00,55.5,37.7,30.15,West,261,6.0,13.0,51,0.00,,CLR,0.00,VWS V12.08,2013-11-06 17:49:00,
2013-11-06 12:54:00,54.8,37.5,30.15,WSW,240,4.0,7.0,52,0.00,,CLR,0.00,VWS V12.08,2013-11-06 17:54:00,
2013-11-06 12:59:00,54.8,38.0,30.13,SW,234,7.0,13.0,53,0.00,,CLR,0.00,VWS V12.08,2013-11-06 17:59:00,
2013-11-06 13:04:00,54.2,37.9,30.13,WSW,251,2.0,10.0,54,0.00,,CLR,0.00,VWS V12.08,2013-11-06 18:04:00,
2013-11-06 13:09:00,54.1,37.8,30.13,West,271,7.0,7.0,54,0.00,,CLR,0.00,VWS V12.08,2013-11-06 18:09:00,
2013-11-06 13:14:00,54.0,37.8,30.14,SSW,212,1.0,14.0,54,0.00,,CLR,0.00,VWS V12.08,2013-11-06 18:14:00,
2013-11-06 13:19:00,54.0,37.8,30.14,West,264,11.0,14.0,54,0.00,,CLR,0.00,VWS V12.08,2013-11-06 18:19:00,
2013-11-06 13:24:00,54.1,38.3,30.14,WSW,247,12.0,13.0,55,0.00,,CLR,0.00,VWS V12.08,2013-11-06 18:24:00,
2013-11-06 13:29:00,54.4,38.1,30.13,WSW,240,10.0,10.0,54,0.00,,CLR,0.00,VWS V12.08,2013-11-06 18:29:00,
2013-11-06 13:34:00,54.7,38.4,30.13,SW,216,5.0,11.0,54,0.00,,CLR,0.00,VWS V12.08,2013-11-06 18:34:00,
2013-11-06 13:39:00,54.7,38.9,30.13,SW,230,6.0,11.0,55,0.00,,CLR,0.00,VWS V12.08,2013-11-06 18:39:00,
2013-11-06 13:44:00,54.4,39.0,30.13,West,264,3.0,7.0,56,0.00,,CLR,0.00,VWS V12.08,2013-11-06 18:44:00,
2013-11-06 13:49:00,54.5,39.1,30.13,WSW,258,7.0,8.0,56,0.00,,CLR,0.00,VWS V12.08,2013-11-06 18:49:00,
2013-11-06 13:54:00,54.7,39.3,30.13,WSW,258,3.0,12.0,56,0.00,,CLR,0.00,VWS V12.08,2013-11-06 18:54:00,
2013-11-06 13:59:00,54.7,39.3,30.12,SW,222,6.0,11.0,56,0.00,,CLR,0.00,VWS V12.08,2013-11-06 18:59:00,
2013-11-06 14:04:00,54.8,39.4,30.12,WSW,248,2.0,13.0,56,0.00,,CLR,0.00,VWS V12.08,2013-11-06 19:04:00,
2013-11-06 14:09:00,54.8,39.4,30.12,WSW,246,2.0,13.0,56,0.00,,CLR,0.00,VWS V12.08,2013-11-06 19:09:00,
2013-11-06 14:14:00,54.8,39.9,30.12,West,267,5.0,9.0,57,0.00,,CLR,0.00,VWS V12.08,2013-11-06 19:14:00,
2013-11-06 14:19:00,55.0,39.6,30.12,SW,215,5.0,12.0,56,0.00,,CLR,0.00,VWS V12.08,2013-11-06 19:19:00,
2013-11-06 14:24:00,55.5,40.1,30.12,SW,233,8.0,12.0,56,0.00,,CLR,0.00,VWS V12.08,2013-11-06 19:24:00,
2013-11-06 14:29:00,55.6,40.2,30.10,WSW,254,8.0,11.0,56,0.00,,CLR,0.00,VWS V12.08,2013-11-06 19:29:00,
2013-11-06 14:34:00,55.6,40.2,30.10,SW,229,8.0,8.0,56,0.00,,CLR,0.00,VWS V12.08,2013-11-06 19:34:00,
2013-11-06 14:39:00,55.1,40.2,30.10,WSW,256,4.0,13.0,57,0.00,,CLR,0.00,VWS V12.08,2013-11-06 19:39:00,
2013-11-06 14:44:00,54.5,40.0,30.10,West,280,5.0,12.0,58,0.00,,FEW110,0.00,VWS V12.08,2013-11-06 19:44:00,
2013-11-06 14:49:00,54.4,40.4,30.10,West,264,4.0,4.0,59,0.00,,FEW110,0.00,VWS V12.08,2013-11-06 19:49:00,
2013-11-06 14:54:00,54.5,40.0,30.10,WSW,258,13.0,13.0,58,0.00,,FEW110,0.00,VWS V12.08,2013-11-06 19:54:00,
2013-11-06 14:59:00,54.7,40.2,30.10,South,181,7.0,12.0,58,0.00,,FEW110,0.00,VWS V12.08,2013-11-06 19:59:00,
2013-11-06 15:04:00,54.7,40.2,30.10,WSW,251,3.0,11.0,58,0.00,,FEW110,0.00,VWS V12.08,2013-11-06 20:04:00,
2013-11-06 15:09:00,54.8,40.3,30.10,West,265,6.0,10.0,58,0.00,,FEW110,0.00,VWS V12.08,2013-11-06 20:09:00,
2013-11-06 15:14:00,54.7,40.7,30.10,NNW,328,3.0,7.0,59,0.00,,FEW110,0.00,VWS V12.08,2013-11-06 20:14:00,
2013-11-06 15:19:00,54.4,40.4,30.10,West,272,3.0,6.0,59,0.00,,FEW110,0.00,VWS V12.08,2013-11-06 20:19:00,
2013-11-06 15:24:00,54.2,40.6,30.10,WSW,253,2.0,2.0,60,0.00,,FEW110,0.00,VWS V12.08,2013-11-06 20:24:00,
2013-11-06 15:29:00,54.1,40.5,30.09,WNW,288,4.0,5.0,60,0.00,,FEW110,0.00,VWS V12.08,2013-11-06 20:29:00,
2013-11-06 15:34:00,54.0,40.4,30.09,SW,233,6.0,7.0,60,0.00,,FEW110,0.00,VWS V12.08,2013-11-06 20:34:00,
2013-11-06 15:39:00,53.8,40.7,30.09,WSW,258,4.0,8.0,61,0.00,,FEW110,0.00,VWS V12.08,2013-11-06 20:39:00,
2013-11-06 15:45:00,53.7,40.6,30.09,WSW,241,4.0,8.0,61,0.00,,FEW110,0.00,VWS V12.08,2013-11-06 20:45:00,
2013-11-06 15:50:00,53.5,40.4,30.09,WSW,237,4.0,8.0,61,0.00,,FEW110,0.00,VWS V12.08,2013-11-06 20:50:00,
2013-11-06 15:55:00,53.5,40.4,30.09,WSW,257,3.0,11.0,61,0.00,,FEW110,0.00,VWS V12.08,2013-11-06 20:55:00,
2013-11-06 16:00:00,53.5,40.4,30.09,WNW,285,5.0,6.0,61,0.00,,FEW110,0.00,VWS V12.08,2013-11-06 21:00:00,
2013-11-06 16:05:00,53.4,40.7,30.09,West,280,1.0,2.0,62,0.00,,SCT110,0.00,VWS V12.08,2013-11-06 21:05:00,
2013-11-06 16:10:00,53.2,40.5,30.09,West,268,6.0,7.0,62,0.00,,SCT110,0.00,VWS V12.08,2013-11-06 21:10:00,
2013-11-06 16:15:00,53.1,40.8,30.08,SW,216,5.0,6.0,63,0.00,,SCT110,0.00,VWS V12.08,2013-11-06 21:15:00,
2013-11-06 16:20:00,52.9,40.7,30.08,SW,224,1.0,3.0,63,0.00,,SCT110,0.00,VWS V12.08,2013-11-06 21:20:00,
2013-11-06 16:25:00,52.8,41.0,30.08,SW,220,2.0,5.0,64,0.00,,SCT110,0.00,VWS V12.08,2013-11-06 21:25:00,
2013-11-06 16:30:00,52.5,40.7,30.08,SW,220,1.0,2.0,64,0.00,,SCT110,0.00,VWS V12.08,2013-11-06 21:30:00,
2013-11-06 16:35:00,52.3,40.9,30.08,SW,220,0.0,3.0,65,0.00,,SCT110,0.00,VWS V12.08,2013-11-06 21:35:00,
2013-11-06 16:40:00,52.0,40.6,30.08,SW,220,0.0,3.0,65,0.00,,SCT110,0.00,VWS V12.08,2013-11-06 21:40:00,
2013-11-06 16:45:00,51.9,40.9,30.08,SW,233,3.0,3.0,66,0.00,,CLR,0.00,VWS V12.08,2013-11-06 21:45:00,
2013-11-06 16:50:00,51.7,40.7,30.08,SW,233,0.0,1.0,66,0.00,,CLR,0.00,VWS V12.08,2013-11-06 21:50:00,
2013-11-06 16:55:00,51.6,41.0,30.08,WSW,237,2.0,5.0,67,0.00,,CLR,0.00,VWS V12.08,2013-11-06 21:55:00,
2013-11-06 17:00:00,51.6,41.0,30.07,West,272,3.0,3.0,67,0.00,,CLR,0.00,VWS V12.08,2013-11-06 22:00:00,
2013-11-06 17:05:00,51.7,40.7,30.07,SW,230,6.0,6.0,66,0.00,,CLR,0.00,VWS V12.08,2013-11-06 22:05:00,
2013-11-06 17:10:00,51.9,40.9,30.07,WSW,247,2.0,7.0,66,0.00,,CLR,0.00,VWS V12.08,2013-11-06 22:10:00,
2013-11-06 17:15:00,52.0,41.0,30.07,SSW,202,1.0,4.0,66,0.00,,CLR,0.00,VWS V12.08,2013-11-06 22:15:00,
2013-11-06 17:20:00,52.0,41.0,30.07,SSW,200,0.0,2.0,66,0.00,,CLR,0.00,VWS V12.08,2013-11-06 22:20:00,
2013-11-06 17:25:00,52.0,41.0,30.07,WSW,239,1.0,3.0,66,0.00,,CLR,0.00,VWS V12.08,2013-11-06 22:25:00,
2013-11-06 17:30:00,52.0,41.4,30.06,WSW,240,0.0,1.0,67,0.00,,CLR,0.00,VWS V12.08,2013-11-06 22:30:00,
2013-11-06 17:35:00,51.9,41.3,30.06,West,260,0.0,0.0,67,0.00,,CLR,0.00,VWS V12.08,2013-11-06 22:35:00,
2013-11-06 17:40:00,51.7,41.1,30.06,SW,220,0.0,3.0,67,0.00,,CLR,0.00,VWS V12.08,2013-11-06 22:40:00,
2013-11-06 17:45:00,51.6,41.4,30.06,SW,220,0.0,1.0,68,0.00,,CLR,0.00,VWS V12.08,2013-11-06 22:45:00,
2013-11-06 17:50:00,51.4,41.2,30.06,SW,222,2.0,3.0,68,0.00,,CLR,0.00,VWS V12.08,2013-11-06 22:50:00,
2013-11-06 17:55:00,51.3,41.1,30.06,SW,222,0.0,2.0,68,0.00,,CLR,0.00,VWS V12.08,2013-11-06 22:55:00,
2013-11-06 18:00:00,51.1,41.3,30.05,SW,222,0.0,0.0,69,0.00,,CLR,0.00,VWS V12.08,2013-11-06 23:00:00,
2013-11-06 18:05:00,50.8,41.4,30.05,SW,222,2.0,2.0,70,0.00,,CLR,0.00,VWS V12.08,2013-11-06 23:05:00,
2013-11-06 18:10:00,50.4,41.4,30.05,SW,222,0.0,1.0,71,0.00,,CLR,0.00,VWS V12.08,2013-11-06 23:10:00,
2013-11-06 18:15:00,50.3,41.3,30.04,WSW,241,3.0,3.0,71,0.00,,CLR,0.00,VWS V12.08,2013-11-06 23:15:00,
2013-11-06 18:20:00,50.6,41.2,30.04,WSW,256,4.0,4.0,70,0.00,,CLR,0.00,VWS V12.08,2013-11-06 23:20:00,
2013-11-06 18:25:00,51.0,41.2,30.04,SW,220,2.0,3.0,69,0.00,,CLR,0.00,VWS V12.08,2013-11-06 23:25:00,
2013-11-06 18:30:00,51.6,41.4,30.04,West,275,5.0,13.0,68,0.00,,CLR,0.00,VWS V12.08,2013-11-06 23:30:00,
2013-11-06 18:35:00,52.2,41.2,30.04,WSW,241,6.0,12.0,66,0.00,,CLR,0.00,VWS V12.08,2013-11-06 23:35:00,
2013-11-06 18:40:00,52.6,41.6,30.04,WNW,284,3.0,8.0,66,0.00,,CLR,0.00,VWS V12.08,2013-11-06 23:40:00,
2013-11-06 18:45:00,52.8,41.4,30.03,WNW,285,6.0,10.0,65,0.00,,CLR,0.00,VWS V12.08,2013-11-06 23:45:00,
2013-11-06 18:50:00,52.8,41.4,30.03,WSW,240,12.0,12.0,65,0.00,,CLR,0.00,VWS V12.08,2013-11-06 23:50:00,
2013-11-06 18:55:00,52.8,41.4,30.03,WSW,256,2.0,7.0,65,0.00,,CLR,0.00,VWS V12.08,2013-11-06 23:55:00,
2013-11-06 19:00:00,52.8,41.4,30.02,West,260,2.0,8.0,65,0.00,,CLR,0.00,VWS V12.08,2013-11-07 00:00:00,
2013-11-06 19:05:00,52.8,41.4,30.02,WSW,241,2.0,3.0,65,0.00,,CLR,0.00,VWS V12.08,2013-11-07 00:05:00,
2013-11-06 19:10:00,52.8,41.4,30.02,WSW,240,2.0,8.0,65,0.00,,CLR,0.00,VWS V12.08,2013-11-07 00:10:00,
2013-11-06 19:15:00,52.8,41.4,30.01,WSW,244,4.0,6.0,65,0.00,,CLR,0.00,VWS V12.08,2013-11-07 00:15:00,
2013-11-06 19:20:00,52.6,41.2,30.01,WSW,257,1.0,3.0,65,0.00,,CLR,0.00,VWS V12.08,2013-11-07 00:20:00,
2013-11-06 19:25:00,52.6,41.2,30.01,SW,216,3.0,10.0,65,0.00,,CLR,0.00,VWS V12.08,2013-11-07 00:25:00,
2013-11-06 19:30:00,52.6,41.2,30.01,NW,311,3.0,6.0,65,0.00,,CLR,0.00,VWS V12.08,2013-11-07 00:30:00,
2013-11-06 19:35:00,52.6,41.2,30.01,West,270,2.0,11.0,65,0.00,,CLR,0.00,VWS V12.08,2013-11-07 00:35:00,
2013-11-06 19:40:00,52.6,41.2,30.01,West,275,6.0,11.0,65,0.00,,CLR,0.00,VWS V12.08,2013-11-07 00:40:00,
2013-11-06 19:45:00,52.5,41.1,30.00,SW,227,3.0,6.0,65,0.00,,CLR,0.00,VWS V12.08,2013-11-07 00:45:00,
2013-11-06 19:50:00,52.5,41.1,30.00,NW,323,3.0,10.0,65,0.00,,CLR,0.00,VWS V12.08,2013-11-07 00:50:00,
2013-11-06 19:55:00,52.3,40.9,30.00,WNW,282,4.0,12.0,65,0.00,,CLR,0.00,VWS V12.08,2013-11-07 00:55:00,
2013-11-06 20:00:00,52.2,41.2,29.99,WSW,256,2.0,5.0,66,0.00,,CLR,0.00,VWS V12.08,2013-11-07 01:00:00,
2013-11-06 20:05:00,52.2,41.2,29.99,NW,316,5.0,6.0,66,0.00,,CLR,0.00,VWS V12.08,2013-11-07 01:05:00,
2013-11-06 20:10:00,52.2,41.2,29.99,West,277,6.0,6.0,66,0.00,,CLR,0.00,VWS V12.08,2013-11-07 01:10:00,
2013-11-06 20:15:00,52.0,41.4,30.00,WNW,295,2.0,5.0,67,0.00,,CLR,0.00,VWS V12.08,2013-11-07 01:15:00,
2013-11-06 20:20:00,52.0,41.4,30.00,WSW,248,3.0,8.0,67,0.00,,CLR,0.00,VWS V12.08,2013-11-07 01:20:00,
2013-11-06 20:25:00,51.9,41.3,30.00,WSW,256,3.0,5.0,67,0.00,,CLR,0.00,VWS V12.08,2013-11-07 01:25:00,
2013-11-06 20:30:00,51.9,41.3,29.98,WSW,254,2.0,6.0,67,0.00,,CLR,0.00,VWS V12.08,2013-11-07 01:30:00,
2013-11-06 20:35:00,51.7,41.1,29.98,SW,229,1.0,10.0,67,0.00,,CLR,0.00,VWS V12.08,2013-11-07 01:35:00,
2013-11-06 20:40:00,51.7,41.5,29.98,West,277,2.0,8.0,68,0.00,,CLR,0.00,VWS V12.08,2013-11-07 01:40:00,
2013-11-06 20:45:00,51.6,41.4,29.99,WSW,241,3.0,8.0,68,0.00,,CLR,0.00,VWS V12.08,2013-11-07 01:45:00,
2013-11-06 20:50:00,51.6,41.4,29.99,WSW,250,5.0,5.0,68,0.00,,CLR,0.00,VWS V12.08,2013-11-07 01:50:00,
2013-11-06 20:55:00,51.4,41.2,29.99,WSW,253,6.0,11.0,68,0.00,,CLR,0.00,VWS V12.08,2013-11-07 01:55:00,
2013-11-06 21:00:00,51.4,41.2,29.97,WSW,246,6.0,12.0,68,0.00,,CLR,0.00,VWS V12.08,2013-11-07 02:00:00,
2013-11-06 21:05:00,51.6,41.4,29.97,West,263,3.0,5.0,68,0.00,,CLR,0.00,VWS V12.08,2013-11-07 02:05:00,
2013-11-06 21:10:00,51.4,41.6,29.97,NNW,328,7.0,10.0,69,0.00,,CLR,0.00,VWS V12.08,2013-11-07 02:10:00,
2013-11-06 21:15:00,51.4,41.6,29.97,NW,305,2.0,6.0,69,0.00,,CLR,0.00,VWS V12.08,2013-11-07 02:15:00,
2013-11-06 21:20:00,51.4,41.6,29.97,WSW,251,1.0,10.0,69,0.00,,CLR,0.00,VWS V12.08,2013-11-07 02:20:00,
2013-11-06 21:25:00,51.3,41.5,29.97,NW,313,5.0,8.0,69,0.00,,CLR,0.00,VWS V12.08,2013-11-07 02:25:00,
2013-11-06 21:30:00,51.1,41.7,29.95,West,265,2.0,9.0,70,0.00,,CLR,0.00,VWS V12.08,2013-11-07 02:30:00,
2013-11-06 21:35:00,51.1,41.7,29.95,West,281,2.0,11.0,70,0.00,,CLR,0.00,VWS V12.08,2013-11-07 02:35:00,
2013-11-06 21:40:00,51.1,41.7,29.95,SW,236,2.0,5.0,70,0.00,,CLR,0.00,VWS V12.08,2013-11-07 02:40:00,
2013-11-06 21:45:00,51.1,41.7,29.95,WNW,302,2.0,7.0,70,0.00,,CLR,0.00,VWS V12.08,2013-11-07 02:45:00,
2013-11-06 21:50:00,51.1,41.7,29.95,NW,320,2.0,4.0,70,0.00,,CLR,0.00,VWS V12.08,2013-11-07 02:50:00,
2013-11-06 21:55:00,51.1,41.7,29.95,WSW,256,2.0,6.0,70,0.00,,CLR,0.00,VWS V12.08,2013-11-07 02:55:00,
2013-11-06 22:00:00,51.1,41.7,29.94,NW,318,2.0,4.0,70,0.00,,CLR,0.00,VWS V12.08,2013-11-07 03:00:00,
2013-11-06 22:05:00,51.0,41.9,29.94,WNW,289,2.0,3.0,71,0.00,,CLR,0.00,VWS V12.08,2013-11-07 03:05:00,
2013-11-06 22:11:00,51.0,41.9,29.94,West,277,2.0,6.0,71,0.00,,CLR,0.00,VWS V12.08,2013-11-07 03:11:00,
2013-11-06 22:16:00,51.0,41.9,29.92,SW,234,2.0,3.0,71,0.00,,CLR,0.00,VWS V12.08,2013-11-07 03:16:00,
2013-11-06 22:21:00,51.0,41.9,29.92,SW,230,1.0,7.0,71,0.00,,CLR,0.00,VWS V12.08,2013-11-07 03:21:00,
2013-11-06 22:26:00,51.1,42.0,29.92,NW,319,2.0,4.0,71,0.00,,CLR,0.00,VWS V12.08,2013-11-07 03:26:00,
2013-11-06 22:31:00,51.1,42.0,29.91,WNW,295,2.0,6.0,71,0.00,,CLR,0.00,VWS V12.08,2013-11-07 03:31:00,
2013-11-06 22:36:00,51.1,42.0,29.91,WSW,256,1.0,6.0,71,0.00,,CLR,0.00,VWS V12.08,2013-11-07 03:36:00,
2013-11-06 22:41:00,51.3,42.2,29.91,NW,308,7.0,7.0,71,0.00,,CLR,0.00,VWS V12.08,2013-11-07 03:41:00,
2013-11-06 22:46:00,51.3,42.2,29.90,West,274,2.0,9.0,71,0.00,,CLR,0.00,VWS V12.08,2013-11-07 03:46:00,
2013-11-06 22:51:00,51.4,42.3,29.90,NW,319,4.0,5.0,71,0.00,,CLR,0.00,VWS V12.08,2013-11-07 03:51:00,
2013-11-06 22:56:00,51.6,42.5,29.90,NW,322,2.0,3.0,71,0.00,,CLR,0.00,VWS V12.08,2013-11-07 03:56:00,
2013-11-06 23:01:00,51.4,42.3,29.90,West,275,2.0,7.0,71,0.00,,CLR,0.00,VWS V12.08,2013-11-07 04:01:00,
2013-11-06 23:06:00,51.6,42.9,29.90,WSW,247,11.0,11.0,72,0.00,,CLR,0.00,VWS V12.08,2013-11-07 04:06:00,
2013-11-06 23:11:00,51.6,42.9,29.90,West,271,17.0,17.0,72,0.00,,CLR,0.00,VWS V12.08,2013-11-07 04:11:00,
2013-11-06 23:16:00,51.6,42.9,29.90,NW,315,4.0,8.0,72,0.00,,CLR,0.00,VWS V12.08,2013-11-07 04:16:00,
2013-11-06 23:21:00,51.6,42.9,29.90,NW,318,5.0,7.0,72,0.00,,CLR,0.00,VWS V12.08,2013-11-07 04:21:00,
2013-11-06 23:26:00,51.4,42.7,29.90,WSW,257,7.0,8.0,72,0.00,,CLR,0.00,VWS V12.08,2013-11-07 04:26:00,
2013-11-06 23:31:00,51.4,43.0,29.89,SW,220,11.0,11.0,73,0.00,,CLR,0.00,VWS V12.08,2013-11-07 04:31:00,
2013-11-06 23:36:00,51.4,43.0,29.89,WSW,250,5.0,8.0,73,0.00,,CLR,0.00,VWS V12.08,2013-11-07 04:36:00,
2013-11-06 23:41:00,51.4,43.0,29.89,NW,320,4.0,7.0,73,0.00,,FEW070,0.00,VWS V12.08,2013-11-07 04:41:00,
2013-11-06 23:46:00,51.4,43.0,29.88,West,274,3.0,5.0,73,0.00,,FEW070,0.00,VWS V12.08,2013-11-07 04:46:00,
2013-11-06 23:51:00,51.4,43.0,29.88,West,268,4.0,7.0,73,0.00,,FEW070,0.00,VWS V12.08,2013-11-07 04:51:00,
2013-11-06 23:56:00,51.4,43.4,29.88,SW,220,4.0,7.0,74,0.00,,FEW070,0.00,VWS V12.08,2013-11-07 04:56:00,